sensor_id;sensor_type;location;lat;lon;timestamp;temperature;humidity
25877;DHT22;13692;47.480;19.216;2023-05-19T00:02:14;13.30;99.90
25877;DHT22;13692;47.480;19.216;2023-05-19T00:04:41;13.30;99.90
25877;DHT22;13692;47.480;19.216;2023-05-19T00:07:12;13.10;99.90
25877;DHT22;13692;47.480;19.216;2023-05-19T00:09:41;13.10;99.90
25877;DHT22;13692;47.480;19.216;2023-05-19T00:12:09;13.10;99.90
25877;DHT22;13692;47.480;19.216;2023-05-19T00:14:36;13.00;99.90
25877;DHT22;13692;47.480;19.216;2023-05-19T00:17:03;13.00;99.90
25877;DHT22;13692;47.480;19.216;2023-05-19T00:19:30;13.00;99.90
25877;DHT22;13692;47.480;19.216;2023-05-19T00:21:58;13.00;99.90
25877;DHT22;13692;47.480;19.216;2023-05-19T00:24:25;13.00;99.90
25877;DHT22;13692;47.480;19.216;2023-05-19T00:26:52;13.10;99.90
25877;DHT22;13692;47.480;19.216;2023-05-19T00:29:19;13.10;99.90
25877;DHT22;13692;47.480;19.216;2023-05-19T00:31:46;13.10;99.90
25877;DHT22;13692;47.480;19.216;2023-05-19T00:34:12;13.10;99.90
25877;DHT22;13692;47.480;19.216;2023-05-19T00:36:40;13.10;99.90
25877;DHT22;13692;47.480;19.216;2023-05-19T00:39:07;13.10;99.90
25877;DHT22;13692;47.480;19.216;2023-05-19T00:41:34;13.10;99.90
25877;DHT22;13692;47.480;19.216;2023-05-19T00:44:01;13.00;99.90
25877;DHT22;13692;47.480;19.216;2023-05-19T00:46:28;13.00;99.90
25877;DHT22;13692;47.480;19.216;2023-05-19T00:48:56;13.00;99.90
25877;DHT22;13692;47.480;19.216;2023-05-19T00:51:25;13.00;99.90
25877;DHT22;13692;47.480;19.216;2023-05-19T00:53:53;12.90;99.90
25877;DHT22;13692;47.480;19.216;2023-05-19T00:56:21;12.80;99.90
25877;DHT22;13692;47.480;19.216;2023-05-19T00:58:50;12.70;99.90
25877;DHT22;13692;47.480;19.216;2023-05-19T01:01:17;12.80;99.90
25877;DHT22;13692;47.480;19.216;2023-05-19T01:03:47;12.90;99.90
25877;DHT22;13692;47.480;19.216;2023-05-19T01:06:15;12.90;99.90
25877;DHT22;13692;47.480;19.216;2023-05-19T01:08:45;12.80;99.90
25877;DHT22;13692;47.480;19.216;2023-05-19T01:11:12;12.80;99.90
25877;DHT22;13692;47.480;19.216;2023-05-19T01:13:39;12.70;99.90
25877;DHT22;13692;47.480;19.216;2023-05-19T01:18:59;12.80;99.90
25877;DHT22;13692;47.480;19.216;2023-05-19T01:32:32;12.90;99.90
25877;DHT22;13692;47.480;19.216;2023-05-19T01:35:00;12.90;99.90
25877;DHT22;13692;47.480;19.216;2023-05-19T01:37:30;12.80;99.90
25877;DHT22;13692;47.480;19.216;2023-05-19T01:39:57;12.80;99.90
25877;DHT22;13692;47.480;19.216;2023-05-19T01:42:26;12.80;99.90
25877;DHT22;13692;47.480;19.216;2023-05-19T01:44:53;12.80;99.90
25877;DHT22;13692;47.480;19.216;2023-05-19T01:47:21;12.80;99.90
25877;DHT22;13692;47.480;19.216;2023-05-19T01:49:48;12.80;99.90
25877;DHT22;13692;47.480;19.216;2023-05-19T01:52:15;12.80;99.90
25877;DHT22;13692;47.480;19.216;2023-05-19T01:54:42;12.70;99.90
25877;DHT22;13692;47.480;19.216;2023-05-19T01:57:32;12.70;99.90
25877;DHT22;13692;47.480;19.216;2023-05-19T02:05:39;12.70;99.90
25877;DHT22;13692;47.480;19.216;2023-05-19T02:10:52;12.60;99.90
25877;DHT22;13692;47.480;19.216;2023-05-19T02:13:23;12.50;99.90
25877;DHT22;13692;47.480;19.216;2023-05-19T02:15:58;12.50;99.90
25877;DHT22;13692;47.480;19.216;2023-05-19T02:18:29;12.50;99.90
25877;DHT22;13692;47.480;19.216;2023-05-19T02:20:57;12.50;99.90
25877;DHT22;13692;47.480;19.216;2023-05-19T02:23:24;12.50;99.90
25877;DHT22;13692;47.480;19.216;2023-05-19T02:25:52;12.60;99.90
25877;DHT22;13692;47.480;19.216;2023-05-19T02:28:19;12.60;99.90
25877;DHT22;13692;47.480;19.216;2023-05-19T02:30:46;12.60;99.90
25877;DHT22;13692;47.480;19.216;2023-05-19T02:33:12;12.50;99.90
25877;DHT22;13692;47.480;19.216;2023-05-19T02:35:39;12.50;99.90
25877;DHT22;13692;47.480;19.216;2023-05-19T02:38:06;12.50;99.90
25877;DHT22;13692;47.480;19.216;2023-05-19T02:40:33;12.50;99.90
25877;DHT22;13692;47.480;19.216;2023-05-19T02:43:00;12.60;99.90
25877;DHT22;13692;47.480;19.216;2023-05-19T02:45:27;12.60;99.90
25877;DHT22;13692;47.480;19.216;2023-05-19T02:47:54;12.60;99.90
25877;DHT22;13692;47.480;19.216;2023-05-19T02:50:22;12.60;99.90
25877;DHT22;13692;47.480;19.216;2023-05-19T02:52:49;12.60;99.90
25877;DHT22;13692;47.480;19.216;2023-05-19T02:55:16;12.60;99.90
25877;DHT22;13692;47.480;19.216;2023-05-19T02:57:43;12.50;99.90
25877;DHT22;13692;47.480;19.216;2023-05-19T03:00:10;12.50;99.90
25877;DHT22;13692;47.480;19.216;2023-05-19T03:02:37;12.60;99.90
25877;DHT22;13692;47.480;19.216;2023-05-19T03:05:06;12.60;99.90
25877;DHT22;13692;47.480;19.216;2023-05-19T03:07:33;12.60;99.90
25877;DHT22;13692;47.480;19.216;2023-05-19T03:10:01;12.60;99.90
25877;DHT22;13692;47.480;19.216;2023-05-19T03:12:32;12.60;99.90
25877;DHT22;13692;47.480;19.216;2023-05-19T03:14:59;12.60;99.90
25877;DHT22;13692;47.480;19.216;2023-05-19T03:17:26;12.60;99.90
25877;DHT22;13692;47.480;19.216;2023-05-19T03:19:59;12.60;99.90
25877;DHT22;13692;47.480;19.216;2023-05-19T03:22:27;12.50;99.90
25877;DHT22;13692;47.480;19.216;2023-05-19T03:24:54;12.60;99.90
25877;DHT22;13692;47.480;19.216;2023-05-19T03:27:21;12.60;99.90
25877;DHT22;13692;47.480;19.216;2023-05-19T03:29:48;12.60;99.90
25877;DHT22;13692;47.480;19.216;2023-05-19T03:32:15;12.50;99.90
25877;DHT22;13692;47.480;19.216;2023-05-19T03:34:42;12.60;99.90
25877;DHT22;13692;47.480;19.216;2023-05-19T03:37:09;12.60;99.90
25877;DHT22;13692;47.480;19.216;2023-05-19T03:39:36;12.60;99.90
25877;DHT22;13692;47.480;19.216;2023-05-19T03:42:03;12.60;99.90
25877;DHT22;13692;47.480;19.216;2023-05-19T03:44:30;12.60;99.90
25877;DHT22;13692;47.480;19.216;2023-05-19T03:46:57;12.70;99.90
25877;DHT22;13692;47.480;19.216;2023-05-19T03:49:24;12.70;99.90
25877;DHT22;13692;47.480;19.216;2023-05-19T03:51:51;12.70;99.90
25877;DHT22;13692;47.480;19.216;2023-05-19T03:54:18;12.80;99.90
25877;DHT22;13692;47.480;19.216;2023-05-19T03:56:46;12.80;99.90
25877;DHT22;13692;47.480;19.216;2023-05-19T03:59:14;12.90;99.90
25877;DHT22;13692;47.480;19.216;2023-05-19T04:01:41;13.00;99.90
25877;DHT22;13692;47.480;19.216;2023-05-19T04:04:08;13.00;99.90
25877;DHT22;13692;47.480;19.216;2023-05-19T04:06:35;13.10;99.90
25877;DHT22;13692;47.480;19.216;2023-05-19T04:09:11;13.20;99.90
25877;DHT22;13692;47.480;19.216;2023-05-19T04:11:39;13.20;99.90
25877;DHT22;13692;47.480;19.216;2023-05-19T04:14:06;13.30;99.90
25877;DHT22;13692;47.480;19.216;2023-05-19T04:16:33;13.30;99.90
25877;DHT22;13692;47.480;19.216;2023-05-19T04:19:00;13.30;99.90
25877;DHT22;13692;47.480;19.216;2023-05-19T04:21:27;13.30;99.90
25877;DHT22;13692;47.480;19.216;2023-05-19T04:23:54;13.40;99.90
25877;DHT22;13692;47.480;19.216;2023-05-19T04:26:21;13.40;99.90
25877;DHT22;13692;47.480;19.216;2023-05-19T04:28:50;13.40;99.90
25877;DHT22;13692;47.480;19.216;2023-05-19T04:31:19;13.50;99.90
25877;DHT22;13692;47.480;19.216;2023-05-19T04:33:47;13.50;99.90
25877;DHT22;13692;47.480;19.216;2023-05-19T04:36:15;13.60;99.90
25877;DHT22;13692;47.480;19.216;2023-05-19T04:38:46;13.70;99.90
25877;DHT22;13692;47.480;19.216;2023-05-19T04:41:13;13.70;99.90
25877;DHT22;13692;47.480;19.216;2023-05-19T04:43:42;13.80;99.90
25877;DHT22;13692;47.480;19.216;2023-05-19T04:46:10;13.90;99.90
25877;DHT22;13692;47.480;19.216;2023-05-19T04:48:39;14.00;99.90
25877;DHT22;13692;47.480;19.216;2023-05-19T04:51:07;14.10;99.90
25877;DHT22;13692;47.480;19.216;2023-05-19T04:53:34;14.20;99.90
25877;DHT22;13692;47.480;19.216;2023-05-19T04:56:02;14.40;99.90
25877;DHT22;13692;47.480;19.216;2023-05-19T04:58:29;14.40;99.90
25877;DHT22;13692;47.480;19.216;2023-05-19T05:00:56;14.50;99.90
25877;DHT22;13692;47.480;19.216;2023-05-19T05:03:26;14.40;99.90
25877;DHT22;13692;47.480;19.216;2023-05-19T05:05:53;14.40;99.90
25877;DHT22;13692;47.480;19.216;2023-05-19T05:08:20;14.50;99.90
25877;DHT22;13692;47.480;19.216;2023-05-19T05:10:52;14.60;99.90
25877;DHT22;13692;47.480;19.216;2023-05-19T05:13:21;14.60;99.90
25877;DHT22;13692;47.480;19.216;2023-05-19T05:15:49;14.70;99.90
25877;DHT22;13692;47.480;19.216;2023-05-19T05:18:17;14.70;99.90
25877;DHT22;13692;47.480;19.216;2023-05-19T05:20:45;14.60;99.90
25877;DHT22;13692;47.480;19.216;2023-05-19T05:23:13;14.60;99.90
25877;DHT22;13692;47.480;19.216;2023-05-19T05:25:41;14.80;99.90
25877;DHT22;13692;47.480;19.216;2023-05-19T05:28:08;14.90;99.90
25877;DHT22;13692;47.480;19.216;2023-05-19T05:30:35;15.00;99.90
25877;DHT22;13692;47.480;19.216;2023-05-19T05:33:02;15.10;99.90
25877;DHT22;13692;47.480;19.216;2023-05-19T05:35:29;15.10;99.90
25877;DHT22;13692;47.480;19.216;2023-05-19T05:37:57;15.10;99.90
25877;DHT22;13692;47.480;19.216;2023-05-19T05:40:24;15.00;99.90
25877;DHT22;13692;47.480;19.216;2023-05-19T05:42:51;15.00;99.90
25877;DHT22;13692;47.480;19.216;2023-05-19T05:45:18;15.00;99.90
25877;DHT22;13692;47.480;19.216;2023-05-19T05:47:45;15.10;99.90
25877;DHT22;13692;47.480;19.216;2023-05-19T05:50:12;15.30;99.90
25877;DHT22;13692;47.480;19.216;2023-05-19T05:52:40;15.40;99.90
25877;DHT22;13692;47.480;19.216;2023-05-19T05:55:08;15.50;99.90
25877;DHT22;13692;47.480;19.216;2023-05-19T05:57:35;15.90;99.90
25877;DHT22;13692;47.480;19.216;2023-05-19T06:00:03;16.40;99.90
25877;DHT22;13692;47.480;19.216;2023-05-19T06:02:35;16.90;99.90
25877;DHT22;13692;47.480;19.216;2023-05-19T06:05:03;17.30;99.90
25877;DHT22;13692;47.480;19.216;2023-05-19T06:07:31;17.70;99.90
25877;DHT22;13692;47.480;19.216;2023-05-19T06:09:58;18.10;99.90
25877;DHT22;13692;47.480;19.216;2023-05-19T06:12:25;18.50;99.90
25877;DHT22;13692;47.480;19.216;2023-05-19T06:14:52;18.90;99.90
25877;DHT22;13692;47.480;19.216;2023-05-19T06:17:19;19.00;99.90
25877;DHT22;13692;47.480;19.216;2023-05-19T06:19:46;19.00;99.90
25877;DHT22;13692;47.480;19.216;2023-05-19T06:22:13;19.60;99.90
25877;DHT22;13692;47.480;19.216;2023-05-19T06:24:40;20.30;99.90
25877;DHT22;13692;47.480;19.216;2023-05-19T06:27:07;20.70;99.90
25877;DHT22;13692;47.480;19.216;2023-05-19T06:29:34;20.90;99.90
25877;DHT22;13692;47.480;19.216;2023-05-19T06:32:01;21.10;99.90
25877;DHT22;13692;47.480;19.216;2023-05-19T06:34:28;20.90;99.90
25877;DHT22;13692;47.480;19.216;2023-05-19T06:36:55;20.80;99.90
25877;DHT22;13692;47.480;19.216;2023-05-19T06:39:22;20.80;99.90
25877;DHT22;13692;47.480;19.216;2023-05-19T06:41:50;20.60;99.90
25877;DHT22;13692;47.480;19.216;2023-05-19T06:44:17;20.40;99.90
25877;DHT22;13692;47.480;19.216;2023-05-19T06:46:46;20.40;99.90
25877;DHT22;13692;47.480;19.216;2023-05-19T06:49:13;20.40;99.90
25877;DHT22;13692;47.480;19.216;2023-05-19T06:51:40;20.80;99.90
25877;DHT22;13692;47.480;19.216;2023-05-19T06:54:07;20.70;99.90
25877;DHT22;13692;47.480;19.216;2023-05-19T06:56:36;20.60;99.90
25877;DHT22;13692;47.480;19.216;2023-05-19T06:59:03;20.40;99.90
25877;DHT22;13692;47.480;19.216;2023-05-19T07:01:30;20.30;99.90
25877;DHT22;13692;47.480;19.216;2023-05-19T07:03:57;20.30;99.90
25877;DHT22;13692;47.480;19.216;2023-05-19T07:06:24;20.70;99.90
25877;DHT22;13692;47.480;19.216;2023-05-19T07:08:51;21.20;99.90
25877;DHT22;13692;47.480;19.216;2023-05-19T07:11:19;21.60;99.90
25877;DHT22;13692;47.480;19.216;2023-05-19T07:13:45;22.00;99.90
25877;DHT22;13692;47.480;19.216;2023-05-19T07:16:12;22.50;99.90
25877;DHT22;13692;47.480;19.216;2023-05-19T07:18:39;22.50;99.90
25877;DHT22;13692;47.480;19.216;2023-05-19T07:21:07;22.30;99.90
25877;DHT22;13692;47.480;19.216;2023-05-19T07:23:34;22.60;99.90
25877;DHT22;13692;47.480;19.216;2023-05-19T07:26:01;22.80;99.90
25877;DHT22;13692;47.480;19.216;2023-05-19T07:28:28;22.90;99.90
25877;DHT22;13692;47.480;19.216;2023-05-19T07:30:55;22.80;99.90
25877;DHT22;13692;47.480;19.216;2023-05-19T07:33:22;23.10;99.90
25877;DHT22;13692;47.480;19.216;2023-05-19T07:35:49;23.40;99.90
25877;DHT22;13692;47.480;19.216;2023-05-19T07:38:16;23.30;99.90
25877;DHT22;13692;47.480;19.216;2023-05-19T07:40:43;23.40;99.90
25877;DHT22;13692;47.480;19.216;2023-05-19T07:43:10;23.50;99.90
25877;DHT22;13692;47.480;19.216;2023-05-19T07:45:37;23.60;99.90
25877;DHT22;13692;47.480;19.216;2023-05-19T07:48:04;23.90;99.90
25877;DHT22;13692;47.480;19.216;2023-05-19T07:50:31;24.30;99.90
25877;DHT22;13692;47.480;19.216;2023-05-19T07:52:59;24.70;99.90
25877;DHT22;13692;47.480;19.216;2023-05-19T07:55:26;24.50;99.90
25877;DHT22;13692;47.480;19.216;2023-05-19T07:57:52;24.50;99.90
25877;DHT22;13692;47.480;19.216;2023-05-19T08:00:20;24.90;99.90
25877;DHT22;13692;47.480;19.216;2023-05-19T08:02:47;24.70;99.90
25877;DHT22;13692;47.480;19.216;2023-05-19T08:05:14;24.50;99.90
25877;DHT22;13692;47.480;19.216;2023-05-19T08:07:41;24.20;99.90
25877;DHT22;13692;47.480;19.216;2023-05-19T08:10:08;24.10;99.90
25877;DHT22;13692;47.480;19.216;2023-05-19T08:12:35;23.90;99.90
25877;DHT22;13692;47.480;19.216;2023-05-19T08:15:03;23.70;99.90
25877;DHT22;13692;47.480;19.216;2023-05-19T08:17:30;23.30;99.90
25877;DHT22;13692;47.480;19.216;2023-05-19T08:19:57;23.70;99.90
25877;DHT22;13692;47.480;19.216;2023-05-19T08:22:24;23.90;99.90
25877;DHT22;13692;47.480;19.216;2023-05-19T08:24:51;24.00;99.90
25877;DHT22;13692;47.480;19.216;2023-05-19T08:27:18;24.20;99.90
25877;DHT22;13692;47.480;19.216;2023-05-19T08:29:45;24.40;99.90
25877;DHT22;13692;47.480;19.216;2023-05-19T08:32:12;24.80;99.90
25877;DHT22;13692;47.480;19.216;2023-05-19T08:34:39;25.20;99.90
25877;DHT22;13692;47.480;19.216;2023-05-19T08:37:07;25.30;99.90
25877;DHT22;13692;47.480;19.216;2023-05-19T08:39:34;25.40;99.90
25877;DHT22;13692;47.480;19.216;2023-05-19T08:42:01;25.60;99.90
25877;DHT22;13692;47.480;19.216;2023-05-19T08:44:28;25.70;99.90
25877;DHT22;13692;47.480;19.216;2023-05-19T08:47:00;25.80;99.90
25877;DHT22;13692;47.480;19.216;2023-05-19T08:49:32;25.60;99.90
25877;DHT22;13692;47.480;19.216;2023-05-19T08:55:07;26.10;99.90
25877;DHT22;13692;47.480;19.216;2023-05-19T08:57:35;26.00;99.90
25877;DHT22;13692;47.480;19.216;2023-05-19T09:00:04;25.90;99.90
25877;DHT22;13692;47.480;19.216;2023-05-19T09:02:38;25.90;99.90
25877;DHT22;13692;47.480;19.216;2023-05-19T09:05:25;25.70;99.90
25877;DHT22;13692;47.480;19.216;2023-05-19T09:07:52;25.80;99.90
25877;DHT22;13692;47.480;19.216;2023-05-19T09:10:19;25.50;99.90
25877;DHT22;13692;47.480;19.216;2023-05-19T09:12:46;25.10;99.90
25877;DHT22;13692;47.480;19.216;2023-05-19T09:15:16;25.00;99.90
25877;DHT22;13692;47.480;19.216;2023-05-19T09:17:46;24.90;99.90
25877;DHT22;13692;47.480;19.216;2023-05-19T09:20:16;25.10;99.90
25877;DHT22;13692;47.480;19.216;2023-05-19T09:22:44;25.40;99.90
25877;DHT22;13692;47.480;19.216;2023-05-19T09:25:22;25.80;99.90
25877;DHT22;13692;47.480;19.216;2023-05-19T09:27:49;25.40;99.90
25877;DHT22;13692;47.480;19.216;2023-05-19T09:30:17;25.00;99.90
25877;DHT22;13692;47.480;19.216;2023-05-19T09:32:44;24.70;99.90
25877;DHT22;13692;47.480;19.216;2023-05-19T09:35:12;24.50;99.90
25877;DHT22;13692;47.480;19.216;2023-05-19T09:37:43;24.20;99.90
25877;DHT22;13692;47.480;19.216;2023-05-19T09:40:12;24.20;99.90
25877;DHT22;13692;47.480;19.216;2023-05-19T09:42:40;24.20;99.90
25877;DHT22;13692;47.480;19.216;2023-05-19T09:45:08;24.00;99.90
25877;DHT22;13692;47.480;19.216;2023-05-19T09:47:39;23.80;99.90
25877;DHT22;13692;47.480;19.216;2023-05-19T09:50:09;23.60;99.90
25877;DHT22;13692;47.480;19.216;2023-05-19T09:52:42;23.80;99.90
25877;DHT22;13692;47.480;19.216;2023-05-19T09:55:11;24.30;99.90
25877;DHT22;13692;47.480;19.216;2023-05-19T09:57:39;24.80;99.90
25877;DHT22;13692;47.480;19.216;2023-05-19T10:00:07;24.90;99.90
25877;DHT22;13692;47.480;19.216;2023-05-19T10:02:42;24.80;99.90
25877;DHT22;13692;47.480;19.216;2023-05-19T10:05:13;24.50;99.90
25877;DHT22;13692;47.480;19.216;2023-05-19T10:07:43;24.20;99.90
25877;DHT22;13692;47.480;19.216;2023-05-19T10:10:12;24.30;99.90
25877;DHT22;13692;47.480;19.216;2023-05-19T10:12:40;24.10;99.90
25877;DHT22;13692;47.480;19.216;2023-05-19T10:15:12;23.90;99.90
25877;DHT22;13692;47.480;19.216;2023-05-19T10:17:41;23.60;99.90
25877;DHT22;13692;47.480;19.216;2023-05-19T10:20:10;23.50;99.90
25877;DHT22;13692;47.480;19.216;2023-05-19T10:22:39;23.40;99.90
25877;DHT22;13692;47.480;19.216;2023-05-19T10:25:07;23.30;99.90
25877;DHT22;13692;47.480;19.216;2023-05-19T10:27:41;23.30;99.90
25877;DHT22;13692;47.480;19.216;2023-05-19T10:30:13;23.10;99.90
25877;DHT22;13692;47.480;19.216;2023-05-19T10:32:43;23.00;99.90
25877;DHT22;13692;47.480;19.216;2023-05-19T10:41:11;23.10;99.90
25877;DHT22;13692;47.480;19.216;2023-05-19T10:46:30;23.60;99.90
25877;DHT22;13692;47.480;19.216;2023-05-19T10:48:58;23.70;99.90
25877;DHT22;13692;47.480;19.216;2023-05-19T10:51:32;23.60;99.90
25877;DHT22;13692;47.480;19.216;2023-05-19T10:54:06;23.70;99.90
25877;DHT22;13692;47.480;19.216;2023-05-19T10:56:38;23.80;99.90
25877;DHT22;13692;47.480;19.216;2023-05-19T10:59:29;23.80;99.90
25877;DHT22;13692;47.480;19.216;2023-05-19T11:01:56;23.80;99.90
25877;DHT22;13692;47.480;19.216;2023-05-19T11:04:38;23.70;99.90
25877;DHT22;13692;47.480;19.216;2023-05-19T11:07:16;23.70;99.90
25877;DHT22;13692;47.480;19.216;2023-05-19T11:09:51;23.60;99.90
25877;DHT22;13692;47.480;19.216;2023-05-19T11:12:22;23.60;99.90
25877;DHT22;13692;47.480;19.216;2023-05-19T11:14:54;23.50;99.90
25877;DHT22;13692;47.480;19.216;2023-05-19T11:17:23;23.40;99.90
25877;DHT22;13692;47.480;19.216;2023-05-19T11:19:53;23.30;99.90
25877;DHT22;13692;47.480;19.216;2023-05-19T11:22:25;23.30;99.90
25877;DHT22;13692;47.480;19.216;2023-05-19T11:24:55;23.30;99.90
25877;DHT22;13692;47.480;19.216;2023-05-19T11:27:28;23.30;99.90
25877;DHT22;13692;47.480;19.216;2023-05-19T11:29:59;23.20;99.90
25877;DHT22;13692;47.480;19.216;2023-05-19T11:32:29;23.10;99.90
25877;DHT22;13692;47.480;19.216;2023-05-19T11:34:56;23.10;99.90
25877;DHT22;13692;47.480;19.216;2023-05-19T11:37:24;23.20;99.90
25877;DHT22;13692;47.480;19.216;2023-05-19T11:39:52;23.40;99.90
25877;DHT22;13692;47.480;19.216;2023-05-19T11:42:19;23.60;99.90
25877;DHT22;13692;47.480;19.216;2023-05-19T11:44:46;23.70;99.90
25877;DHT22;13692;47.480;19.216;2023-05-19T11:47:14;23.90;99.90
25877;DHT22;13692;47.480;19.216;2023-05-19T11:49:44;23.70;99.90
25877;DHT22;13692;47.480;19.216;2023-05-19T11:52:14;23.50;99.90
25877;DHT22;13692;47.480;19.216;2023-05-19T11:54:41;23.30;99.90
25877;DHT22;13692;47.480;19.216;2023-05-19T11:57:09;23.30;99.90
25877;DHT22;13692;47.480;19.216;2023-05-19T11:59:39;23.40;99.90
25877;DHT22;13692;47.480;19.216;2023-05-19T12:02:22;23.60;99.90
25877;DHT22;13692;47.480;19.216;2023-05-19T12:04:53;23.70;99.90
25877;DHT22;13692;47.480;19.216;2023-05-19T12:07:24;23.90;99.90
25877;DHT22;13692;47.480;19.216;2023-05-19T12:09:53;23.80;99.90
25877;DHT22;13692;47.480;19.216;2023-05-19T12:12:21;23.70;99.90
25877;DHT22;13692;47.480;19.216;2023-05-19T12:14:50;23.70;99.90
25877;DHT22;13692;47.480;19.216;2023-05-19T12:17:19;23.80;99.90
25877;DHT22;13692;47.480;19.216;2023-05-19T12:19:48;23.70;99.90
25877;DHT22;13692;47.480;19.216;2023-05-19T12:22:18;23.70;99.90
25877;DHT22;13692;47.480;19.216;2023-05-19T12:24:46;23.80;99.90
25877;DHT22;13692;47.480;19.216;2023-05-19T12:27:23;23.80;99.90
25877;DHT22;13692;47.480;19.216;2023-05-19T12:29:56;23.60;99.90
25877;DHT22;13692;47.480;19.216;2023-05-19T12:32:26;23.30;99.90
25877;DHT22;13692;47.480;19.216;2023-05-19T12:34:55;23.20;99.90
25877;DHT22;13692;47.480;19.216;2023-05-19T12:37:26;23.20;99.90
25877;DHT22;13692;47.480;19.216;2023-05-19T12:39:54;23.00;99.90
25877;DHT22;13692;47.480;19.216;2023-05-19T12:42:22;23.00;99.90
25877;DHT22;13692;47.480;19.216;2023-05-19T12:44:50;23.10;99.90
25877;DHT22;13692;47.480;19.216;2023-05-19T12:47:19;23.40;99.90
25877;DHT22;13692;47.480;19.216;2023-05-19T12:49:59;23.50;99.90
25877;DHT22;13692;47.480;19.216;2023-05-19T12:52:28;23.50;99.90
25877;DHT22;13692;47.480;19.216;2023-05-19T12:55:00;23.50;99.90
25877;DHT22;13692;47.480;19.216;2023-05-19T12:57:28;23.20;99.90
25877;DHT22;13692;47.480;19.216;2023-05-19T13:05:23;23.10;99.90
25877;DHT22;13692;47.480;19.216;2023-05-19T13:10:21;23.00;99.90
25877;DHT22;13692;47.480;19.216;2023-05-19T13:12:48;23.00;99.90
25877;DHT22;13692;47.480;19.216;2023-05-19T13:15:15;23.00;99.90
25877;DHT22;13692;47.480;19.216;2023-05-19T13:17:42;22.90;99.90
25877;DHT22;13692;47.480;19.216;2023-05-19T13:20:12;23.00;99.90
25877;DHT22;13692;47.480;19.216;2023-05-19T13:22:39;23.10;99.90
25877;DHT22;13692;47.480;19.216;2023-05-19T13:25:07;23.10;99.90
25877;DHT22;13692;47.480;19.216;2023-05-19T13:27:34;23.10;99.90
25877;DHT22;13692;47.480;19.216;2023-05-19T13:30:02;23.10;99.90
25877;DHT22;13692;47.480;19.216;2023-05-19T13:32:29;23.20;99.90
25877;DHT22;13692;47.480;19.216;2023-05-19T13:34:56;23.30;99.90
25877;DHT22;13692;47.480;19.216;2023-05-19T13:37:24;23.30;99.90
25877;DHT22;13692;47.480;19.216;2023-05-19T13:39:51;23.40;99.90
25877;DHT22;13692;47.480;19.216;2023-05-19T13:42:18;23.40;99.90
25877;DHT22;13692;47.480;19.216;2023-05-19T13:44:45;23.40;99.90
25877;DHT22;13692;47.480;19.216;2023-05-19T13:47:12;23.40;99.90
25877;DHT22;13692;47.480;19.216;2023-05-19T13:49:40;23.40;99.90
25877;DHT22;13692;47.480;19.216;2023-05-19T13:52:07;23.50;99.90
25877;DHT22;13692;47.480;19.216;2023-05-19T13:54:34;23.40;99.90
25877;DHT22;13692;47.480;19.216;2023-05-19T13:57:01;23.40;99.90
25877;DHT22;13692;47.480;19.216;2023-05-19T13:59:28;23.40;99.90
25877;DHT22;13692;47.480;19.216;2023-05-19T14:01:55;23.40;99.90
25877;DHT22;13692;47.480;19.216;2023-05-19T14:04:22;23.40;99.90
25877;DHT22;13692;47.480;19.216;2023-05-19T14:06:50;23.50;99.90
25877;DHT22;13692;47.480;19.216;2023-05-19T14:09:17;23.50;99.90
25877;DHT22;13692;47.480;19.216;2023-05-19T14:11:46;23.50;99.90
25877;DHT22;13692;47.480;19.216;2023-05-19T14:14:13;23.50;99.90
25877;DHT22;13692;47.480;19.216;2023-05-19T14:16:40;23.60;99.90
25877;DHT22;13692;47.480;19.216;2023-05-19T14:19:09;23.70;99.90
25877;DHT22;13692;47.480;19.216;2023-05-19T14:21:36;23.60;99.90
25877;DHT22;13692;47.480;19.216;2023-05-19T14:24:03;23.60;99.90
25877;DHT22;13692;47.480;19.216;2023-05-19T14:26:30;23.60;99.90
25877;DHT22;13692;47.480;19.216;2023-05-19T14:28:57;23.50;99.90
25877;DHT22;13692;47.480;19.216;2023-05-19T14:31:24;23.50;99.90
25877;DHT22;13692;47.480;19.216;2023-05-19T14:33:52;23.60;99.90
25877;DHT22;13692;47.480;19.216;2023-05-19T14:36:19;23.70;99.90
25877;DHT22;13692;47.480;19.216;2023-05-19T14:38:46;23.70;99.90
25877;DHT22;13692;47.480;19.216;2023-05-19T14:41:13;23.90;99.90
25877;DHT22;13692;47.480;19.216;2023-05-19T14:43:40;24.00;99.90
25877;DHT22;13692;47.480;19.216;2023-05-19T14:46:08;24.00;99.90
25877;DHT22;13692;47.480;19.216;2023-05-19T14:48:35;23.90;99.90
25877;DHT22;13692;47.480;19.216;2023-05-19T14:51:02;23.90;99.90
25877;DHT22;13692;47.480;19.216;2023-05-19T14:53:30;24.00;99.90
25877;DHT22;13692;47.480;19.216;2023-05-19T14:55:57;24.00;99.90
25877;DHT22;13692;47.480;19.216;2023-05-19T14:58:24;24.00;99.90
25877;DHT22;13692;47.480;19.216;2023-05-19T15:00:56;24.10;99.90
25877;DHT22;13692;47.480;19.216;2023-05-19T15:03:24;24.20;99.90
25877;DHT22;13692;47.480;19.216;2023-05-19T15:05:51;24.20;99.90
25877;DHT22;13692;47.480;19.216;2023-05-19T15:08:18;24.10;99.90
25877;DHT22;13692;47.480;19.216;2023-05-19T15:10:48;24.10;99.90
25877;DHT22;13692;47.480;19.216;2023-05-19T15:13:15;24.10;99.90
25877;DHT22;13692;47.480;19.216;2023-05-19T15:15:44;23.90;99.90
25877;DHT22;13692;47.480;19.216;2023-05-19T15:18:11;23.80;99.90
25877;DHT22;13692;47.480;19.216;2023-05-19T15:20:42;23.70;99.90
25877;DHT22;13692;47.480;19.216;2023-05-19T15:23:09;23.70;99.90
25877;DHT22;13692;47.480;19.216;2023-05-19T15:25:36;23.70;99.90
25877;DHT22;13692;47.480;19.216;2023-05-19T15:28:03;23.80;99.90
25877;DHT22;13692;47.480;19.216;2023-05-19T15:30:30;23.80;99.90
25877;DHT22;13692;47.480;19.216;2023-05-19T15:32:57;23.80;99.90
25877;DHT22;13692;47.480;19.216;2023-05-19T15:35:24;23.80;99.90
25877;DHT22;13692;47.480;19.216;2023-05-19T15:37:51;23.80;99.90
25877;DHT22;13692;47.480;19.216;2023-05-19T15:40:18;23.80;99.90
25877;DHT22;13692;47.480;19.216;2023-05-19T15:42:45;23.90;99.90
25877;DHT22;13692;47.480;19.216;2023-05-19T15:45:12;23.70;99.90
25877;DHT22;13692;47.480;19.216;2023-05-19T15:47:39;23.50;99.90
25877;DHT22;13692;47.480;19.216;2023-05-19T15:50:06;23.50;99.90
25877;DHT22;13692;47.480;19.216;2023-05-19T15:52:33;23.50;99.90
25877;DHT22;13692;47.480;19.216;2023-05-19T15:55:00;23.60;99.90
25877;DHT22;13692;47.480;19.216;2023-05-19T15:57:27;23.50;99.90
25877;DHT22;13692;47.480;19.216;2023-05-19T15:59:54;23.40;99.90
25877;DHT22;13692;47.480;19.216;2023-05-19T16:02:22;23.30;99.90
25877;DHT22;13692;47.480;19.216;2023-05-19T16:04:48;23.30;99.90